TimeAST,TemperatureF,Dew PointF,Humidity,Sea Level PressureIn,VisibilityMPH,Wind Direction,Wind SpeedMPH,Gust SpeedMPH,PrecipitationIn,Events,Conditions,WindDirDegrees,DateUTC
12:00 AM,73.4,66.2,78,29.95,6.2,NE,3.5,-,N/A,,Mostly Cloudy,50,2013-03-17 04:00:00
1:00 AM,73.4,66.2,78,29.95,6.2,NE,3.5,-,N/A,,Mostly Cloudy,50,2013-03-17 05:00:00
2:00 AM,75.2,68.0,78,29.95,6.2,Calm,Calm,-,N/A,,Mostly Cloudy,0,2013-03-17 06:00:00
5:00 AM,75.2,68.0,78,29.95,6.2,Calm,Calm,-,N/A,,Mostly Cloudy,0,2013-03-17 09:00:00
6:00 AM,75.2,66.2,73,29.95,6.2,NE,5.8,-,N/A,,Mostly Cloudy,50,2013-03-17 10:00:00
7:00 AM,77.0,68.0,74,29.98,6.2,NE,6.9,-,N/A,,Mostly Cloudy,40,2013-03-17 11:00:00
8:00 AM,78.8,69.8,74,30.01,6.2,NE,5.8,-,N/A,,Mostly Cloudy,40,2013-03-17 12:00:00
9:00 AM,80.6,68.0,65,30.01,6.2,NNE,8.1,-,N/A,,Scattered Clouds,30,2013-03-17 13:00:00
10:00 AM,80.6,68.0,65,30.04,6.2,NE,5.8,-,N/A,,Scattered Clouds,40,2013-03-17 14:00:00
11:00 AM,86.0,66.2,51,30.01,6.2,East,15.0,-,N/A,,Scattered Clouds,90,2013-03-17 15:00:00
12:00 PM,87.8,64.4,46,30.01,6.2,East,17.3,-,N/A,,Mostly Cloudy,100,2013-03-17 16:00:00
1:00 PM,87.8,64.4,46,29.98,6.2,ESE,16.1,-,N/A,,Mostly Cloudy,110,2013-03-17 17:00:00
2:00 PM,86.0,64.4,48,29.95,6.2,East,19.6,-,N/A,,Mostly Cloudy,100,2013-03-17 18:00:00
3:00 PM,86.0,66.2,51,29.95,6.2,East,19.6,-,N/A,,Mostly Cloudy,100,2013-03-17 19:00:00
4:00 PM,86.0,66.2,51,29.92,6.2,East,16.1,-,N/A,,Mostly Cloudy,90,2013-03-17 20:00:00
5:00 PM,82.4,68.0,62,29.92,6.2,East,17.3,-,N/A,,Mostly Cloudy,90,2013-03-17 21:00:00
6:00 PM,80.6,68.0,65,29.95,6.2,ENE,5.8,-,N/A,,Mostly Cloudy,70,2013-03-17 22:00:00
7:00 PM,78.8,66.2,65,29.95,6.2,East,4.6,-,N/A,,Mostly Cloudy,80,2013-03-17 23:00:00
8:00 PM,78.8,66.2,65,29.95,6.2,East,4.6,-,N/A,,Mostly Cloudy,80,2013-03-18 00:00:00
9:00 PM,77.0,66.2,69,29.98,6.2,Calm,Calm,-,N/A,,Mostly Cloudy,0,2013-03-18 01:00:00
10:00 PM,77.0,66.2,69,29.98,6.2,NE,5.8,-,N/A,,Scattered Clouds,40,2013-03-18 02:00:00
11:00 PM,77.0,66.2,69,29.98,6.2,ENE,3.5,-,N/A,,Scattered Clouds,60,2013-03-18 03:00:00